Time;durP1;ratioP1;P1;durP2;ratioP2;P2;SDS_P1;SDS_P2;PMS_P1;PMS_P2;Temp;Humidity;BMP_temperature;BMP_pressure;BME280_temperature;BME280_humidity;BME280_pressure;Samples;Min_cycle;Max_cycle;Signal;HPM_P1;HPM_P2
2023/12/07 00:01:01;;;;;;;;;;;1.00;99.90;;;;;;5041024;28;19924;-92
2023/12/07 00:03:27;;;;;;;;;;;2.20;99.90;;;;;;5041432;28;19931;-93
2023/12/07 00:05:53;;;;;;;;;;;2.20;99.90;;;;;;5040499;28;19925;-92
2023/12/07 00:08:18;;;;;;;;;;;2.50;99.90;;;;;;5040107;28;19920;-93
2023/12/07 00:10:44;;;;;;;;;;;3.40;99.90;;;;;;5041131;28;20012;-94
2023/12/07 00:13:09;;;;;;;;;;;2.20;99.90;;;;;;5024903;28;20343;-93
2023/12/07 00:15:35;;;;;;;;;;;2.20;99.90;;;;;;5023081;28;19927;-94
2023/12/07 00:18:02;;;;;;;;;;;2.30;99.90;;;;;;5023479;28;19928;-94
2023/12/07 00:20:29;;;;;;;;;;;2.30;99.90;;;;;;5039456;28;19924;-92
2023/12/07 00:22:55;;;;;;;;;;;2.30;99.90;;;;;;5039275;28;20318;-93
2023/12/07 00:25:21;;;;;;;;;;;2.20;99.90;;;;;;5045926;28;19925;-94
2023/12/07 00:27:47;;;;;;;;;;;2.20;99.90;;;;;;5056836;28;19924;-93
2023/12/07 00:30:13;;;;;;;;;;;2.30;99.90;;;;;;5056387;28;20015;-93
2023/12/07 00:32:40;;;;;;;;;;;2.20;99.90;;;;;;5055848;28;19936;-93
2023/12/07 00:35:07;;;;;;;;;;;2.30;99.90;;;;;;5038420;28;20562;-93
2023/12/07 00:37:33;;;;;;;;;;;2.70;99.90;;;;;;5040596;28;19955;-92
2023/12/07 00:39:58;;;;;;;;;;;2.30;99.90;;;;;;5053080;28;19933;-92
2023/12/07 00:42:24;;;;;;;;;;;2.30;99.90;;;;;;5068379;28;20356;-92
2023/12/07 00:44:50;;;;;;;;;;;2.30;99.90;;;;;;5055742;28;19920;-94
2023/12/07 00:47:15;;;;;;;;;;;2.30;99.90;;;;;;5033605;28;19921;-93
2023/12/07 00:49:41;;;;;;;;;;;2.30;99.90;;;;;;5038437;28;19927;-92
2023/12/07 00:52:06;;;;;;;;;;;2.20;99.90;;;;;;5056171;28;19920;-91
2023/12/07 00:54:32;;;;;;;;;;;2.30;99.90;;;;;;5054728;28;20015;-92
2023/12/07 00:56:58;;;;;;;;;;;2.30;99.90;;;;;;5051439;28;19933;-93
2023/12/07 00:59:23;;;;;;;;;;;3.20;99.90;;;;;;5047346;28;19979;-92
2023/12/07 01:01:49;;;;;;;;;;;3.00;99.90;;;;;;5034713;28;20431;-92
2023/12/07 01:04:15;;;;;;;;;;;2.30;99.90;;;;;;5038737;28;19924;-92
2023/12/07 01:06:42;;;;;;;;;;;2.30;99.90;;;;;;5055789;28;20022;-92
2023/12/07 01:09:12;;;;;;;;;;;2.30;99.90;;;;;;5038031;28;20261;-92
2023/12/07 01:11:40;;;;;;;;;;;2.70;99.90;;;;;;5054307;28;20030;-93
2023/12/07 01:14:05;;;;;;;;;;;2.30;99.90;;;;;;5046083;28;20371;-91
2023/12/07 01:16:31;;;;;;;;;;;2.30;99.90;;;;;;5055330;28;19927;-92
2023/12/07 01:18:57;;;;;;;;;;;2.70;99.90;;;;;;5055843;28;19959;-92
2023/12/07 01:21:23;;;;;;;;;;;2.20;99.90;;;;;;5038473;28;19978;-93
2023/12/07 01:23:49;;;;;;;;;;;2.30;99.90;;;;;;5038201;28;19928;-92
2023/12/07 01:26:14;;;;;;;;;;;2.60;99.90;;;;;;5037863;28;20368;-93
2023/12/07 01:28:40;;;;;;;;;;;2.20;99.90;;;;;;5038717;28;20110;-92
2023/12/07 01:31:06;;;;;;;;;;;2.20;99.90;;;;;;5052496;28;19966;-93
2023/12/07 01:33:31;;;;;;;;;;;2.50;99.90;;;;;;5055186;28;19920;-92
2023/12/07 01:35:57;;;;;;;;;;;2.30;99.90;;;;;;5034833;28;20422;-92
2023/12/07 01:38:23;;;;;;;;;;;3.70;99.90;;;;;;5052476;28;19999;-92
2023/12/07 01:40:48;;;;;;;;;;;2.20;99.90;;;;;;5038686;28;19925;-92
2023/12/07 01:43:14;;;;;;;;;;;3.00;99.90;;;;;;5038716;28;19921;-93
2023/12/07 01:45:40;;;;;;;;;;;2.70;99.90;;;;;;5054847;28;19952;-93
2023/12/07 01:48:06;;;;;;;;;;;2.20;99.90;;;;;;5037803;28;19921;-93
2023/12/07 01:50:33;;;;;;;;;;;2.60;99.90;;;;;;5033611;28;19928;-92
2023/12/07 01:53:01;;;;;;;;;;;2.50;99.90;;;;;;5036730;28;19964;-92
2023/12/07 01:55:27;;;;;;;;;;;2.20;99.90;;;;;;5054144;28;19927;-93
2023/12/07 01:57:53;;;;;;;;;;;2.60;99.90;;;;;;5054443;28;19970;-93
2023/12/07 02:00:19;;;;;;;;;;;3.20;99.90;;;;;;5053403;28;20014;-94
2023/12/07 02:02:45;;;;;;;;;;;2.10;99.90;;;;;;5052688;28;19927;-92
2023/12/07 02:05:12;;;;;;;;;;;2.20;99.90;;;;;;5037590;28;20017;-93
2023/12/07 02:07:39;;;;;;;;;;;2.10;99.90;;;;;;5054787;28;20034;-93
2023/12/07 02:10:05;;;;;;;;;;;2.20;99.90;;;;;;5053742;28;19924;-93
2023/12/07 02:12:31;;;;;;;;;;;2.10;99.90;;;;;;5038165;28;19982;-92
2023/12/07 02:14:56;;;;;;;;;;;2.20;99.90;;;;;;5033535;28;19967;-93
2023/12/07 02:17:47;;;;;;;;;;;2.10;99.90;;;;;;5054960;28;20384;-92
2023/12/07 02:20:26;;;;;;;;;;;2.00;99.90;;;;;;5037848;28;19943;-91
2023/12/07 02:22:56;;;;;;;;;;;2.10;99.90;;;;;;5055373;28;19921;-92
2023/12/07 02:25:24;;;;;;;;;;;2.10;99.90;;;;;;5043072;28;19950;-92
2023/12/07 02:27:49;;;;;;;;;;;2.10;99.90;;;;;;5052525;28;19920;-93
2023/12/07 02:30:15;;;;;;;;;;;2.20;99.90;;;;;;5035778;28;19927;-93
2023/12/07 02:32:41;;;;;;;;;;;2.60;99.90;;;;;;5033174;28;19989;-92
2023/12/07 02:35:08;;;;;;;;;;;2.20;99.90;;;;;;5048441;28;20015;-93
2023/12/07 02:37:50;;;;;;;;;;;2.20;99.90;;;;;;5028468;28;19921;-93
2023/12/07 02:40:18;;;;;;;;;;;2.20;99.90;;;;;;5057768;28;19931;-92
2023/12/07 02:42:43;;;;;;;;;;;2.20;99.90;;;;;;5031627;28;19946;-92
2023/12/07 02:45:10;;;;;;;;;;;2.20;99.90;;;;;;5037422;28;19924;-94
2023/12/07 02:47:35;;;;;;;;;;;3.10;99.90;;;;;;5021868;28;19986;-93
2023/12/07 02:50:02;;;;;;;;;;;2.20;99.90;;;;;;5037962;28;19921;-92
2023/12/07 02:52:28;;;;;;;;;;;2.10;99.90;;;;;;5054585;28;19970;-92
2023/12/07 02:54:54;;;;;;;;;;;2.20;99.90;;;;;;5037257;28;19924;-93
2023/12/07 02:57:19;;;;;;;;;;;3.00;99.90;;;;;;5033576;28;19921;-93
2023/12/07 02:59:45;;;;;;;;;;;2.20;99.90;;;;;;5020788;28;19947;-92
2023/12/07 03:02:11;;;;;;;;;;;2.10;99.90;;;;;;5021753;28;19960;-92
2023/12/07 03:04:36;;;;;;;;;;;3.30;99.90;;;;;;5033630;28;19927;-93
2023/12/07 03:07:02;;;;;;;;;;;2.20;99.90;;;;;;5019952;28;20003;-93
2023/12/07 03:09:28;;;;;;;;;;;2.20;99.90;;;;;;5037792;28;20014;-93
2023/12/07 03:11:53;;;;;;;;;;;2.20;99.90;;;;;;5021875;28;19992;-94
2023/12/07 03:14:19;;;;;;;;;;;2.20;99.90;;;;;;5025067;28;20368;-93
2023/12/07 03:16:45;;;;;;;;;;;2.20;99.90;;;;;;5058085;28;19921;-93
2023/12/07 03:19:10;;;;;;;;;;;2.20;99.90;;;;;;5058509;28;19931;-93
2023/12/07 03:21:40;;;;;;;;;;;2.10;99.90;;;;;;5041034;28;19956;-92
2023/12/07 03:24:07;;;;;;;;;;;2.20;99.90;;;;;;5041605;28;19974;-93
2023/12/07 03:26:33;;;;;;;;;;;2.30;99.90;;;;;;5041126;28;20011;-93
2023/12/07 03:28:58;;;;;;;;;;;2.20;99.90;;;;;;5025889;28;19959;-94
2023/12/07 03:31:24;;;;;;;;;;;2.20;99.90;;;;;;5043246;28;19924;-93
2023/12/07 03:33:49;;;;;;;;;;;2.60;99.90;;;;;;5041987;28;19921;-93
2023/12/07 03:36:15;;;;;;;;;;;3.00;99.90;;;;;;5040989;28;19927;-91
2023/12/07 03:38:42;;;;;;;;;;;2.20;99.90;;;;;;5042216;28;19943;-93
2023/12/07 03:41:08;;;;;;;;;;;2.10;99.90;;;;;;5025090;28;19928;-94
2023/12/07 03:43:33;;;;;;;;;;;2.10;99.90;;;;;;5041279;28;20494;-93
2023/12/07 03:45:59;;;;;;;;;;;2.90;99.90;;;;;;5041679;28;19956;-93
2023/12/07 03:48:25;;;;;;;;;;;2.20;99.90;;;;;;5025156;28;19920;-93
2023/12/07 03:50:51;;;;;;;;;;;3.00;99.90;;;;;;5040943;28;19921;-93
2023/12/07 03:53:16;;;;;;;;;;;2.20;99.90;;;;;;5027201;28;20502;-93
2023/12/07 03:55:42;;;;;;;;;;;2.60;99.90;;;;;;5024717;28;19956;-93
2023/12/07 03:58:08;;;;;;;;;;;2.10;99.90;;;;;;5041724;28;20020;-90
2023/12/07 04:00:33;;;;;;;;;;;2.10;99.90;;;;;;5026039;28;19929;-92
2023/12/07 04:02:59;;;;;;;;;;;3.70;99.90;;;;;;5034892;28;20330;-92
2023/12/07 04:05:24;;;;;;;;;;;2.20;99.90;;;;;;5018610;28;19927;-92
2023/12/07 04:07:50;;;;;;;;;;;2.00;99.90;;;;;;5024298;28;19920;-92
2023/12/07 04:10:16;;;;;;;;;;;3.00;99.90;;;;;;5024103;28;19920;-92
2023/12/07 04:12:41;;;;;;;;;;;2.00;99.90;;;;;;5017148;28;20405;-93
2023/12/07 04:15:07;;;;;;;;;;;2.50;99.90;;;;;;5027072;28;20522;-92
2023/12/07 04:17:33;;;;;;;;;;;2.00;99.90;;;;;;5056390;28;19924;-92
2023/12/07 04:19:58;;;;;;;;;;;2.70;99.90;;;;;;5038296;28;19982;-90
2023/12/07 04:22:24;;;;;;;;;;;1.90;99.90;;;;;;5055900;28;20390;-92
2023/12/07 04:24:49;;;;;;;;;;;2.00;99.90;;;;;;5023668;28;19932;-93
2023/12/07 04:27:15;;;;;;;;;;;1.90;99.90;;;;;;5022376;28;19924;-92
2023/12/07 04:29:41;;;;;;;;;;;2.40;99.90;;;;;;5037886;28;19924;-91
2023/12/07 04:32:07;;;;;;;;;;;1.90;99.90;;;;;;5021670;28;19970;-93
2023/12/07 04:34:33;;;;;;;;;;;2.00;99.90;;;;;;5035567;28;20203;-93
2023/12/07 04:36:59;;;;;;;;;;;1.90;99.90;;;;;;5055903;28;20371;-93
2023/12/07 04:39:24;;;;;;;;;;;3.30;99.90;;;;;;5038940;28;19925;-93
2023/12/07 04:41:51;;;;;;;;;;;1.90;99.90;;;;;;5039659;28;19973;-93
2023/12/07 04:44:16;;;;;;;;;;;1.90;99.90;;;;;;5022763;28;20348;-93
2023/12/07 04:46:42;;;;;;;;;;;1.90;99.90;;;;;;5032718;28;19952;-92
2023/12/07 04:49:08;;;;;;;;;;;2.50;99.90;;;;;;5039173;28;20271;-92
2023/12/07 04:51:34;;;;;;;;;;;2.60;99.90;;;;;;5039007;28;20371;-92
2023/12/07 04:53:59;;;;;;;;;;;2.60;99.90;;;;;;5039468;28;20394;-92
2023/12/07 04:56:25;;;;;;;;;;;1.90;99.90;;;;;;5035872;28;19921;-92
2023/12/07 04:58:51;;;;;;;;;;;2.10;99.90;;;;;;5039555;28;20407;-93
2023/12/07 05:01:18;;;;;;;;;;;3.10;99.90;;;;;;5039151;28;19924;-93
2023/12/07 05:03:44;;;;;;;;;;;1.80;99.90;;;;;;5039720;28;19930;-93
2023/12/07 05:06:10;;;;;;;;;;;1.90;99.90;;;;;;5055430;28;19927;-93
2023/12/07 05:08:36;;;;;;;;;;;1.80;99.90;;;;;;5039172;28;20372;-93
2023/12/07 05:11:01;;;;;;;;;;;1.80;99.90;;;;;;5039524;28;19952;-93
2023/12/07 05:13:27;;;;;;;;;;;2.60;99.90;;;;;;5039633;28;20394;-91
2023/12/07 05:15:53;;;;;;;;;;;3.00;99.90;;;;;;5039303;28;19967;-92
2023/12/07 05:18:18;;;;;;;;;;;3.00;99.90;;;;;;5039683;28;19924;-92
2023/12/07 05:20:44;;;;;;;;;;;1.80;99.90;;;;;;5022801;28;20368;-92
2023/12/07 05:23:09;;;;;;;;;;;3.10;99.90;;;;;;5036996;28;19920;-93
2023/12/07 05:25:35;;;;;;;;;;;1.80;99.90;;;;;;5045533;28;19932;-93
2023/12/07 05:28:01;;;;;;;;;;;1.70;99.90;;;;;;5038803;28;19925;-91
2023/12/07 05:30:27;;;;;;;;;;;2.10;99.90;;;;;;5055501;28;20260;-91
2023/12/07 05:32:53;;;;;;;;;;;1.80;99.90;;;;;;5071750;28;20026;-91
2023/12/07 05:35:20;;;;;;;;;;;1.80;99.90;;;;;;5064840;28;19939;-94
2023/12/07 05:37:45;;;;;;;;;;;1.90;99.90;;;;;;5068206;28;19924;-91
2023/12/07 05:40:15;;;;;;;;;;;3.30;99.90;;;;;;5052125;28;20273;-92
2023/12/07 05:42:41;;;;;;;;;;;1.90;99.90;;;;;;5051323;28;20024;-92
2023/12/07 05:45:07;;;;;;;;;;;1.90;99.90;;;;;;5055236;28;19959;-92
2023/12/07 05:47:33;;;;;;;;;;;1.90;99.90;;;;;;5058019;28;19978;-91
2023/12/07 05:49:59;;;;;;;;;;;2.80;99.90;;;;;;5037688;28;20589;-92
2023/12/07 05:52:25;;;;;;;;;;;1.90;99.90;;;;;;5055080;28;19927;-92
2023/12/07 05:54:51;;;;;;;;;;;1.90;99.90;;;;;;5038243;28;20007;-92
2023/12/07 05:57:16;;;;;;;;;;;2.50;99.90;;;;;;5045084;28;19936;-91
2023/12/07 05:59:43;;;;;;;;;;;1.90;99.90;;;;;;5054361;28;19978;-91
2023/12/07 06:02:08;;;;;;;;;;;2.20;99.90;;;;;;5035812;28;19946;-92
2023/12/07 06:04:34;;;;;;;;;;;3.00;99.90;;;;;;5054218;28;19924;-92
2023/12/07 06:07:00;;;;;;;;;;;1.90;99.90;;;;;;5054979;28;19971;-91
2023/12/07 06:09:25;;;;;;;;;;;1.90;99.90;;;;;;5036321;28;19920;-91
2023/12/07 06:11:51;;;;;;;;;;;2.20;99.90;;;;;;5055486;28;19920;-93
2023/12/07 06:14:17;;;;;;;;;;;1.90;99.90;;;;;;5052068;28;19932;-91
2023/12/07 06:16:42;;;;;;;;;;;1.80;99.90;;;;;;5064497;28;20393;-92
2023/12/07 06:19:08;;;;;;;;;;;2.00;99.90;;;;;;5045678;28;19978;-93
2023/12/07 06:21:34;;;;;;;;;;;1.90;99.90;;;;;;5047294;28;19960;-92
2023/12/07 06:24:00;;;;;;;;;;;2.90;99.90;;;;;;5044439;28;20287;-90
2023/12/07 06:26:26;;;;;;;;;;;1.90;99.90;;;;;;5055016;28;19990;-90
2023/12/07 06:28:51;;;;;;;;;;;2.50;99.90;;;;;;5050897;28;19921;-92
2023/12/07 06:31:21;;;;;;;;;;;1.80;99.90;;;;;;5040217;28;20356;-89
2023/12/07 06:33:47;;;;;;;;;;;1.90;99.90;;;;;;5027657;28;19924;-92
2023/12/07 06:36:18;;;;;;;;;;;1.80;99.90;;;;;;5068150;28;20167;-93
2023/12/07 06:38:43;;;;;;;;;;;1.70;99.90;;;;;;5067944;28;19920;-92
2023/12/07 06:41:10;;;;;;;;;;;1.80;99.90;;;;;;5043833;28;19924;-91
2023/12/07 06:43:35;;;;;;;;;;;2.20;99.90;;;;;;5047042;28;19921;-92
2023/12/07 06:46:01;;;;;;;;;;;1.70;99.90;;;;;;5062677;28;20378;-92
2023/12/07 06:48:26;;;;;;;;;;;3.30;99.90;;;;;;5052829;28;19927;-92
2023/12/07 06:50:52;;;;;;;;;;;1.80;99.90;;;;;;5045509;28;20649;-92
2023/12/07 06:53:18;;;;;;;;;;;2.10;99.90;;;;;;5049193;28;19970;-94
2023/12/07 06:55:44;;;;;;;;;;;1.90;99.90;;;;;;5049833;28;19925;-93
2023/12/07 06:58:09;;;;;;;;;;;1.80;99.90;;;;;;5058038;28;19926;-92
2023/12/07 07:00:36;;;;;;;;;;;1.80;99.90;;;;;;5038512;28;19952;-91
2023/12/07 07:03:02;;;;;;;;;;;1.80;99.90;;;;;;5057982;28;19920;-87
2023/12/07 07:05:28;;;;;;;;;;;1.80;99.90;;;;;;5065050;28;19931;-89
2023/12/07 07:07:55;;;;;;;;;;;3.10;99.90;;;;;;5057013;28;19969;-90
2023/12/07 07:10:21;;;;;;;;;;;1.80;99.90;;;;;;5069197;28;19990;-90
2023/12/07 07:12:46;;;;;;;;;;;1.80;99.90;;;;;;5057082;28;20360;-91
2023/12/07 07:15:12;;;;;;;;;;;1.80;99.90;;;;;;5050957;28;20389;-90
2023/12/07 07:17:38;;;;;;;;;;;1.80;99.90;;;;;;5041286;28;19927;-90
2023/12/07 07:20:03;;;;;;;;;;;1.80;99.90;;;;;;5046664;28;19936;-90
2023/12/07 07:22:29;;;;;;;;;;;1.80;99.90;;;;;;5039952;28;19927;-90
2023/12/07 07:24:55;;;;;;;;;;;1.80;99.90;;;;;;5043331;28;19931;-90
2023/12/07 07:27:21;;;;;;;;;;;1.80;99.90;;;;;;5039768;28;19925;-91
2023/12/07 07:29:47;;;;;;;;;;;1.80;99.90;;;;;;5054045;28;19921;-91
2023/12/07 07:32:12;;;;;;;;;;;3.30;99.90;;;;;;5040086;28;19936;-91
2023/12/07 07:34:39;;;;;;;;;;;1.90;99.90;;;;;;5039078;28;20394;-91
2023/12/07 07:37:06;;;;;;;;;;;2.80;99.90;;;;;;5073724;28;20062;-90
2023/12/07 07:39:32;;;;;;;;;;;3.20;99.90;;;;;;5071785;28;19932;-91
2023/12/07 07:41:58;;;;;;;;;;;1.80;99.90;;;;;;5040607;28;19929;-91
2023/12/07 07:44:23;;;;;;;;;;;3.00;99.90;;;;;;5053836;28;20383;-91
2023/12/07 07:46:49;;;;;;;;;;;1.90;99.90;;;;;;5054069;28;19974;-91
2023/12/07 07:49:15;;;;;;;;;;;1.90;99.90;;;;;;5040161;28;19920;-91
2023/12/07 07:51:40;;;;;;;;;;;1.90;99.90;;;;;;5040441;28;20247;-91
2023/12/07 07:54:06;;;;;;;;;;;1.90;99.90;;;;;;5040505;28;19921;-91
2023/12/07 07:56:32;;;;;;;;;;;1.90;99.90;;;;;;5052906;28;20334;-91
2023/12/07 07:59:00;;;;;;;;;;;1.90;99.90;;;;;;5053292;28;19924;-91
2023/12/07 08:01:26;;;;;;;;;;;1.90;99.90;;;;;;5072089;28;20439;-91
2023/12/07 08:03:51;;;;;;;;;;;3.10;99.90;;;;;;5040916;28;19928;-91
2023/12/07 08:06:17;;;;;;;;;;;2.00;99.90;;;;;;5068022;28;20446;-91
2023/12/07 08:08:43;;;;;;;;;;;2.20;99.90;;;;;;5036615;28;20383;-91
2023/12/07 08:11:08;;;;;;;;;;;2.00;99.90;;;;;;5072697;28;20511;-91
2023/12/07 08:13:34;;;;;;;;;;;2.10;99.90;;;;;;5052146;28;19925;-90
2023/12/07 08:15:59;;;;;;;;;;;1.40;99.90;;;;;;5036545;28;20015;-91
2023/12/07 08:18:25;;;;;;;;;;;2.00;99.90;;;;;;5034803;28;20040;-91
2023/12/07 08:20:51;;;;;;;;;;;2.10;99.90;;;;;;5054226;28;20015;-91
2023/12/07 08:23:17;;;;;;;;;;;2.20;99.90;;;;;;5066397;28;20536;-91
2023/12/07 08:25:43;;;;;;;;;;;2.20;99.90;;;;;;5053026;28;19928;-91
2023/12/07 08:28:09;;;;;;;;;;;2.20;99.90;;;;;;5044529;28;19932;-90
2023/12/07 08:30:35;;;;;;;;;;;2.20;99.90;;;;;;5044741;28;19925;-91
2023/12/07 08:33:01;;;;;;;;;;;2.20;99.90;;;;;;5056571;28;20366;-90
2023/12/07 08:35:26;;;;;;;;;;;2.30;99.90;;;;;;5052844;28;19920;-91
2023/12/07 08:37:52;;;;;;;;;;;2.30;99.90;;;;;;5052768;28;20000;-91
2023/12/07 08:40:21;;;;;;;;;;;2.30;99.90;;;;;;5055822;28;20402;-91
2023/12/07 08:42:48;;;;;;;;;;;2.30;99.90;;;;;;5056263;28;19927;-91
2023/12/07 08:45:14;;;;;;;;;;;2.30;99.90;;;;;;5054015;28;19925;-91
2023/12/07 08:47:39;;;;;;;;;;;2.40;99.90;;;;;;5038936;28;19959;-90
2023/12/07 08:50:07;;;;;;;;;;;2.50;99.90;;;;;;5046100;28;20356;-90
2023/12/07 08:52:33;;;;;;;;;;;2.40;99.90;;;;;;5056280;28;19924;-91
2023/12/07 08:54:59;;;;;;;;;;;2.50;99.90;;;;;;5048202;28;19925;-91
2023/12/07 08:57:25;;;;;;;;;;;2.50;99.90;;;;;;5070713;28;19921;-91
2023/12/07 08:59:50;;;;;;;;;;;3.10;99.90;;;;;;5053012;28;19935;-89
2023/12/07 09:02:16;;;;;;;;;;;3.30;99.90;;;;;;5055728;28;19920;-90
2023/12/07 09:04:42;;;;;;;;;;;2.50;99.90;;;;;;5054637;28;19920;-91
2023/12/07 09:07:09;;;;;;;;;;;2.50;99.90;;;;;;5056156;28;19924;-91
2023/12/07 09:09:34;;;;;;;;;;;3.40;99.90;;;;;;5048858;28;20405;-91
2023/12/07 09:12:00;;;;;;;;;;;2.50;99.90;;;;;;5078709;28;20011;-91
2023/12/07 09:14:29;;;;;;;;;;;2.50;99.90;;;;;;5038666;28;19963;-91
2023/12/07 09:16:55;;;;;;;;;;;2.60;99.90;;;;;;5054332;28;19924;-92
2023/12/07 09:19:20;;;;;;;;;;;2.60;99.90;;;;;;5042326;28;20022;-91
2023/12/07 09:21:46;;;;;;;;;;;2.80;99.90;;;;;;5035432;28;20003;-90
2023/12/07 09:24:12;;;;;;;;;;;2.90;99.90;;;;;;5033550;28;19921;-91
2023/12/07 09:26:37;;;;;;;;;;;3.00;99.90;;;;;;5053000;28;19935;-90
2023/12/07 09:29:03;;;;;;;;;;;3.30;99.90;;;;;;5034530;28;20414;-89
2023/12/07 09:31:28;;;;;;;;;;;3.10;99.90;;;;;;5043701;28;19925;-90
2023/12/07 09:33:54;;;;;;;;;;;3.70;99.90;;;;;;5037979;28;19974;-88
2023/12/07 09:36:21;;;;;;;;;;;3.10;99.90;;;;;;5070839;28;20291;-91
2023/12/07 09:38:47;;;;;;;;;;;3.10;99.90;;;;;;5054434;28;20142;-91
2023/12/07 09:41:16;;;;;;;;;;;3.10;99.90;;;;;;5054722;28;20390;-90
2023/12/07 09:43:41;;;;;;;;;;;3.10;99.90;;;;;;5048881;28;19966;-89
2023/12/07 09:46:07;;;;;;;;;;;2.40;99.90;;;;;;5068556;28;19932;-91
2023/12/07 09:48:33;;;;;;;;;;;3.10;99.90;;;;;;5071629;28;20509;-90
2023/12/07 09:50:59;;;;;;;;;;;3.20;99.90;;;;;;5037468;28;19935;-91
2023/12/07 09:53:25;;;;;;;;;;;3.10;99.90;;;;;;5085561;28;19957;-91
2023/12/07 09:55:51;;;;;;;;;;;3.70;99.90;;;;;;5053802;28;20015;-88
2023/12/07 09:58:16;;;;;;;;;;;3.10;99.90;;;;;;5051866;28;20042;-90
2023/12/07 10:00:42;;;;;;;;;;;3.20;99.90;;;;;;5033877;28;19963;-90
2023/12/07 10:03:19;;;;;;;;;;;3.20;99.90;;;;;;5050519;28;19920;-91
2023/12/07 10:05:56;;;;;;;;;;;3.20;99.90;;;;;;5046654;28;19943;-90
2023/12/07 10:08:27;;;;;;;;;;;3.20;99.90;;;;;;5049485;28;19994;-89
2023/12/07 10:11:01;;;;;;;;;;;3.20;99.90;;;;;;5049883;28;20015;-87
2023/12/07 10:13:28;;;;;;;;;;;3.20;99.90;;;;;;5053395;28;19981;-88
2023/12/07 10:16:05;;;;;;;;;;;3.20;99.90;;;;;;5045351;28;19925;-87
2023/12/07 10:18:31;;;;;;;;;;;3.30;99.90;;;;;;5045078;28;19920;-91
2023/12/07 10:20:57;;;;;;;;;;;3.20;99.90;;;;;;5036093;28;19966;-89
2023/12/07 10:23:25;;;;;;;;;;;3.20;99.90;;;;;;5054436;28;19924;-91
2023/12/07 10:25:50;;;;;;;;;;;3.30;99.90;;;;;;5037477;28;20051;-91
2023/12/07 10:28:17;;;;;;;;;;;3.30;99.90;;;;;;5073857;28;19972;-91
2023/12/07 10:30:44;;;;;;;;;;;3.30;99.90;;;;;;5053350;28;19947;-91
2023/12/07 10:33:09;;;;;;;;;;;3.40;99.90;;;;;;5051747;28;20011;-91
2023/12/07 10:35:39;;;;;;;;;;;3.40;99.90;;;;;;5070413;28;20011;-90
2023/12/07 10:38:05;;;;;;;;;;;3.40;99.90;;;;;;5069666;28;19928;-91
2023/12/07 10:40:31;;;;;;;;;;;3.40;99.90;;;;;;5035793;28;19933;-89
2023/12/07 10:42:58;;;;;;;;;;;3.40;99.90;;;;;;5034589;28;20001;-90
2023/12/07 10:45:29;;;;;;;;;;;3.40;99.90;;;;;;5048182;28;19928;-91
2023/12/07 10:47:58;;;;;;;;;;;3.50;99.90;;;;;;5050438;28;19925;-88
2023/12/07 10:50:26;;;;;;;;;;;3.50;99.90;;;;;;5048573;28;20303;-87
2023/12/07 10:52:55;;;;;;;;;;;3.50;99.90;;;;;;5048223;28;20445;-88
2023/12/07 10:55:25;;;;;;;;;;;3.50;99.90;;;;;;5048020;28;20098;-89
2023/12/07 10:57:52;;;;;;;;;;;3.50;99.90;;;;;;5084863;28;19920;-89
2023/12/07 11:00:19;;;;;;;;;;;3.50;99.90;;;;;;5045772;28;19928;-89
2023/12/07 11:02:46;;;;;;;;;;;3.50;99.90;;;;;;5054215;28;19950;-89
2023/12/07 11:05:11;;;;;;;;;;;3.50;99.90;;;;;;5052522;28;19925;-90
2023/12/07 11:07:49;;;;;;;;;;;3.60;99.90;;;;;;5049656;28;19931;-88
2023/12/07 11:10:20;;;;;;;;;;;3.60;99.90;;;;;;5048092;28;19924;-89
2023/12/07 11:12:54;;;;;;;;;;;3.60;99.90;;;;;;5055965;28;19920;-90
2023/12/07 11:15:20;;;;;;;;;;;3.60;99.90;;;;;;5045530;28;19974;-88
2023/12/07 11:17:53;;;;;;;;;;;3.60;99.90;;;;;;5030402;28;19960;-90
2023/12/07 11:20:47;;;;;;;;;;;3.60;99.90;;;;;;5051827;28;19928;-86
2023/12/07 11:23:19;;;;;;;;;;;3.70;99.90;;;;;;5042730;28;19968;-91
2023/12/07 11:25:45;;;;;;;;;;;3.70;99.90;;;;;;5054247;28;20011;-90
2023/12/07 11:28:12;;;;;;;;;;;3.70;99.90;;;;;;5051232;28;19920;-91
2023/12/07 11:30:37;;;;;;;;;;;3.70;99.90;;;;;;5062399;28;19920;-88
2023/12/07 11:33:04;;;;;;;;;;;3.90;99.90;;;;;;5029775;28;19940;-86
2023/12/07 11:35:30;;;;;;;;;;;3.70;99.90;;;;;;5049228;28;19924;-87
2023/12/07 11:38:09;;;;;;;;;;;3.70;99.90;;;;;;5036710;28;19920;-88
2023/12/07 11:40:41;;;;;;;;;;;3.70;99.90;;;;;;5049867;28;20352;-90
2023/12/07 11:43:07;;;;;;;;;;;3.70;99.90;;;;;;5065715;28;19920;-90
2023/12/07 11:45:48;;;;;;;;;;;3.70;99.90;;;;;;5049825;28;20151;-88
2023/12/07 11:48:15;;;;;;;;;;;3.80;99.90;;;;;;5048036;28;20299;-89
2023/12/07 11:50:54;;;;;;;;;;;3.80;99.90;;;;;;5049676;28;19935;-88
2023/12/07 11:53:24;;;;;;;;;;;3.80;99.90;;;;;;5054072;28;19927;-89
2023/12/07 11:55:50;;;;;;;;;;;3.80;99.90;;;;;;5048110;28;19928;-89
2023/12/07 11:58:15;;;;;;;;;;;3.80;99.90;;;;;;5067656;28;19921;-90
2023/12/07 12:00:41;;;;;;;;;;;3.80;99.90;;;;;;5055505;28;19937;-90
2023/12/07 12:03:07;;;;;;;;;;;3.80;99.90;;;;;;5054656;28;19994;-90
2023/12/07 12:05:32;;;;;;;;;;;3.80;99.90;;;;;;5047751;28;19974;-90
2023/12/07 12:07:58;;;;;;;;;;;3.90;99.90;;;;;;5047763;28;19991;-90
2023/12/07 12:10:25;;;;;;;;;;;3.80;99.90;;;;;;5054842;28;19947;-90
2023/12/07 12:12:51;;;;;;;;;;;3.90;99.90;;;;;;5052752;28;20364;-90
2023/12/07 12:15:17;;;;;;;;;;;3.90;99.90;;;;;;5052141;28;19920;-90
2023/12/07 12:17:43;;;;;;;;;;;3.90;99.90;;;;;;5052731;28;20031;-90
2023/12/07 12:20:10;;;;;;;;;;;3.90;99.90;;;;;;5032032;28;20379;-86
2023/12/07 12:22:39;;;;;;;;;;;3.90;99.90;;;;;;5033976;28;19960;-88
2023/12/07 12:25:05;;;;;;;;;;;3.90;99.90;;;;;;5033655;28;19929;-87
2023/12/07 12:27:33;;;;;;;;;;;3.80;99.90;;;;;;5037598;28;20003;-87
2023/12/07 12:29:59;;;;;;;;;;;3.80;99.90;;;;;;5064384;28;19943;-89
2023/12/07 12:32:25;;;;;;;;;;;3.80;99.90;;;;;;5053859;28;19928;-87
2023/12/07 12:34:51;;;;;;;;;;;3.80;99.90;;;;;;5051930;28;20627;-88
2023/12/07 12:37:16;;;;;;;;;;;3.70;99.90;;;;;;5052252;28;19973;-87
2023/12/07 12:39:42;;;;;;;;;;;4.10;99.90;;;;;;5045814;28;20390;-87
2023/12/07 12:42:11;;;;;;;;;;;3.10;99.90;;;;;;5021308;28;19925;-86
2023/12/07 12:44:38;;;;;;;;;;;3.70;99.90;;;;;;5064468;28;20369;-88
2023/12/07 12:47:10;;;;;;;;;;;3.70;99.90;;;;;;5049431;28;19920;-85
2023/12/07 12:49:37;;;;;;;;;;;3.70;99.90;;;;;;5031518;28;19931;-88
2023/12/07 12:52:03;;;;;;;;;;;5.00;99.90;;;;;;5043196;28;20269;-89
2023/12/07 12:54:32;;;;;;;;;;;3.50;99.90;;;;;;5050070;28;20392;-88
2023/12/07 12:56:58;;;;;;;;;;;3.40;99.90;;;;;;5064949;28;19924;-88
2023/12/07 12:59:24;;;;;;;;;;;3.20;99.90;;;;;;5027576;28;20521;-87
2023/12/07 13:01:50;;;;;;;;;;;3.10;99.90;;;;;;5034639;28;20388;-88
2023/12/07 13:04:16;;;;;;;;;;;2.90;99.90;;;;;;5033934;28;20139;-85
2023/12/07 13:06:41;;;;;;;;;;;3.90;99.90;;;;;;5051513;28;19927;-86
2023/12/07 13:09:07;;;;;;;;;;;2.90;99.90;;;;;;5064347;28;20409;-82
2023/12/07 13:11:33;;;;;;;;;;;2.50;99.90;;;;;;5051884;28;20446;-88
2023/12/07 13:13:59;;;;;;;;;;;2.40;99.90;;;;;;5035345;28;19968;-88
2023/12/07 13:16:24;;;;;;;;;;;2.30;99.90;;;;;;5033640;28;20012;-91
2023/12/07 13:18:50;;;;;;;;;;;2.20;99.90;;;;;;5035760;28;19984;-84
2023/12/07 13:21:16;;;;;;;;;;;2.10;99.90;;;;;;5047767;28;20019;-88
2023/12/07 13:23:41;;;;;;;;;;;2.00;99.90;;;;;;5048452;28;19928;-86
2023/12/07 13:26:07;;;;;;;;;;;2.00;99.90;;;;;;5050588;28;19928;-87
2023/12/07 13:28:33;;;;;;;;;;;2.70;99.90;;;;;;5044666;28;19930;-85
2023/12/07 13:30:58;;;;;;;;;;;1.80;99.90;;;;;;5051080;28;19999;-89
2023/12/07 13:33:25;;;;;;;;;;;1.90;99.90;;;;;;5050713;28;19947;-89
2023/12/07 13:35:52;;;;;;;;;;;1.90;99.90;;;;;;5038189;28;19960;-87
2023/12/07 13:38:19;;;;;;;;;;;1.90;99.90;;;;;;5065867;28;19947;-85
2023/12/07 13:40:46;;;;;;;;;;;1.80;99.90;;;;;;5032195;28;19947;-86
2023/12/07 13:43:16;;;;;;;;;;;1.80;99.90;;;;;;5060215;28;21176;-90
2023/12/07 13:45:42;;;;;;;;;;;1.60;99.90;;;;;;5059910;28;19932;-88
2023/12/07 13:48:08;;;;;;;;;;;1.50;99.90;;;;;;5063238;28;20531;-90
2023/12/07 13:50:33;;;;;;;;;;;2.50;99.90;;;;;;5048308;28;19931;-86
2023/12/07 13:52:59;;;;;;;;;;;1.60;99.90;;;;;;5026219;28;19921;-93
2023/12/07 13:55:34;;;;;;;;;;;2.20;99.90;;;;;;5050576;28;19970;-89
2023/12/07 13:58:17;;;;;;;;;;;1.50;99.90;;;;;;5052637;28;20287;-94
2023/12/07 14:00:45;;;;;;;;;;;2.50;99.90;;;;;;5053222;28;19929;-93
2023/12/07 14:03:14;;;;;;;;;;;1.40;99.90;;;;;;5056121;28;20395;-91
2023/12/07 14:05:39;;;;;;;;;;;1.00;99.90;;;;;;5070719;28;19928;-91
2023/12/07 14:08:11;;;;;;;;;;;1.80;99.90;;;;;;5049076;28;19967;-93
2023/12/07 14:10:39;;;;;;;;;;;1.30;99.90;;;;;;5072497;28;20540;-95
2023/12/07 14:13:09;;;;;;;;;;;1.40;99.90;;;;;;5055269;28;19920;-94
2023/12/07 14:15:35;;;;;;;;;;;1.40;99.90;;;;;;5041422;28;19939;-94
2023/12/07 14:18:02;;;;;;;;;;;2.10;99.90;;;;;;5059279;28;19932;-92
2023/12/07 14:20:31;;;;;;;;;;;1.30;99.90;;;;;;5023080;28;19979;-90
2023/12/07 14:22:56;;;;;;;;;;;1.40;99.90;;;;;;5030696;28;20272;-92
2023/12/07 14:25:22;;;;;;;;;;;1.30;99.90;;;;;;5045228;28;19928;-95
2023/12/07 14:27:48;;;;;;;;;;;1.50;99.90;;;;;;5056517;28;19931;-95